createdAt,value
2023-11-21T00:01:37.386Z,34.17
2023-11-21T00:06:38.746Z,34.12
2023-11-21T00:11:40.071Z,34.32
2023-11-21T00:16:41.445Z,34.12
2023-11-21T00:21:45.021Z,34.40
2023-11-21T00:26:46.328Z,34.42
2023-11-21T00:31:47.691Z,34.53
2023-11-21T00:36:49.129Z,34.53
2023-11-21T00:41:50.504Z,34.48
2023-11-21T00:46:52.106Z,34.33
2023-11-21T00:51:53.496Z,34.45
2023-11-21T00:56:54.828Z,34.48
2023-11-21T01:01:56.312Z,34.55
2023-11-21T01:06:57.610Z,34.61
2023-11-21T01:12:00.701Z,34.55
2023-11-21T01:17:02.144Z,34.49
2023-11-21T01:22:04.839Z,34.41
2023-11-21T01:27:06.333Z,34.66
2023-11-21T01:32:09.191Z,34.63
2023-11-21T01:37:13.087Z,34.42
2023-11-21T01:42:14.437Z,34.52
2023-11-21T01:47:16.532Z,34.39
2023-11-21T01:52:18.902Z,34.44
2023-11-21T01:57:21.462Z,34.30
2023-11-21T02:02:22.783Z,34.31
2023-11-21T02:07:24.639Z,34.44
2023-11-21T02:12:27.635Z,34.31
2023-11-21T02:17:28.949Z,34.24
2023-11-21T02:22:31.766Z,34.25
2023-11-21T02:27:33.100Z,34.31
2023-11-21T02:32:35.442Z,34.18
2023-11-21T02:37:50.181Z,34.09
2023-11-21T02:42:54.359Z,33.88
2023-11-21T02:47:57.781Z,33.91
2023-11-21T02:53:01.163Z,33.98
2023-11-21T02:58:02.632Z,33.86
2023-11-21T03:03:05.137Z,33.98
2023-11-21T03:08:06.527Z,33.84
2023-11-21T03:13:07.848Z,33.95
2023-11-21T03:18:09.194Z,33.70
2023-11-21T03:23:10.637Z,33.85
2023-11-21T03:28:12.271Z,33.73
2023-11-21T03:33:13.612Z,33.62
2023-11-21T03:38:14.938Z,33.76
2023-11-21T03:43:16.368Z,33.62
2023-11-21T03:48:17.796Z,33.78
2023-11-21T03:53:19.314Z,33.64
2023-11-21T03:58:20.712Z,33.79
2023-11-21T04:03:22.172Z,33.63
2023-11-21T04:08:23.535Z,33.44
2023-11-21T04:13:24.929Z,33.32
2023-11-21T04:18:26.757Z,33.29
2023-11-21T04:23:28.811Z,33.60
2023-11-21T04:28:30.227Z,33.49
2023-11-21T04:33:32.537Z,33.54
2023-11-21T04:38:34.040Z,33.62
2023-11-21T04:43:35.368Z,33.38
2023-11-21T04:48:36.698Z,33.34
2023-11-21T04:53:37.992Z,33.65
2023-11-21T04:58:40.935Z,33.59
2023-11-21T05:03:42.566Z,33.47
2023-11-21T05:08:43.890Z,33.48
2023-11-21T05:13:45.213Z,33.63
2023-11-21T05:18:46.529Z,33.79
2023-11-21T05:23:47.821Z,33.58
2023-11-21T05:28:49.223Z,33.56
2023-11-21T05:33:50.554Z,33.59
2023-11-21T05:38:51.888Z,33.43
2023-11-21T05:43:55.039Z,33.49
2023-11-21T05:48:56.460Z,33.48
2023-11-21T05:53:57.810Z,33.55
2023-11-21T05:58:59.453Z,33.42
2023-11-21T06:04:00.899Z,33.31
2023-11-21T06:09:02.320Z,33.33
2023-11-21T06:14:03.815Z,33.39
2023-11-21T06:19:06.405Z,33.09
2023-11-21T06:24:08.124Z,33.17
2023-11-21T06:29:09.482Z,33.25
2023-11-21T06:34:11.034Z,33.28
2023-11-21T06:39:12.343Z,33.35
2023-11-21T06:44:14.363Z,33.36
2023-11-21T06:49:15.661Z,33.26
2023-11-21T06:54:17.043Z,33.18
2023-11-21T06:59:18.434Z,33.42
2023-11-21T07:04:19.826Z,33.56
2023-11-21T07:09:24.031Z,33.48
2023-11-21T07:14:27.700Z,33.51
2023-11-21T07:19:29.077Z,33.56
2023-11-21T07:24:32.897Z,33.51
2023-11-21T07:29:35.213Z,33.55
2023-11-21T07:34:37.126Z,33.82
2023-11-21T07:39:38.570Z,34.01
2023-11-21T07:44:40.087Z,33.75
2023-11-21T07:49:44.168Z,34.05
2023-11-21T07:54:45.523Z,34.31
2023-11-21T07:59:46.891Z,34.31
2023-11-21T08:04:50.610Z,34.33
2023-11-21T08:09:52.229Z,34.07
2023-11-21T08:14:53.531Z,34.13
2023-11-21T08:19:54.975Z,34.28
2023-11-21T08:24:57.614Z,34.20
2023-11-21T08:29:59.499Z,34.20
2023-11-21T08:35:01.312Z,34.47
2023-11-21T08:40:03.215Z,35.00
2023-11-21T08:45:05.197Z,35.40
2023-11-21T08:50:08.734Z,35.29
2023-11-21T08:55:10.094Z,35.26
2023-11-21T09:00:20.526Z,35.27
2023-11-21T09:05:22.083Z,35.70
2023-11-21T09:10:24.795Z,35.80
2023-11-21T09:15:26.421Z,35.85
2023-11-21T09:20:27.921Z,35.91
2023-11-21T09:25:30.159Z,35.62
2023-11-21T09:30:31.950Z,35.83
2023-11-21T09:35:33.484Z,35.69
2023-11-21T09:40:34.877Z,35.80
2023-11-21T09:45:36.514Z,35.69
2023-11-21T09:50:37.941Z,35.70
2023-11-21T09:55:39.509Z,35.48
2023-11-21T10:00:41.196Z,35.19
2023-11-21T10:05:47.029Z,34.88
2023-11-21T10:10:49.878Z,34.69
2023-11-21T10:15:51.669Z,34.33
2023-11-21T10:20:54.399Z,34.18
2023-11-21T10:25:58.526Z,33.67
2023-11-21T10:31:01.664Z,33.96
2023-11-21T10:36:03.670Z,33.59
2023-11-21T10:41:08.323Z,33.37
2023-11-21T10:46:10.075Z,33.36
2023-11-21T10:51:11.503Z,33.41
2023-11-21T10:56:18.522Z,33.23
2023-11-21T11:01:20.007Z,33.09
2023-11-21T11:06:21.666Z,32.74
2023-11-21T11:11:23.197Z,32.56
2023-11-21T11:16:25.934Z,32.15
2023-11-21T11:21:29.796Z,31.72
2023-11-21T11:26:40.271Z,31.73
2023-11-21T11:31:49.818Z,31.58
2023-11-21T11:37:04.478Z,31.70
2023-11-21T11:42:09.489Z,31.71
2023-11-21T11:47:19.365Z,31.27
2023-11-21T11:52:37.163Z,31.22
2023-11-21T11:57:39.784Z,31.07
2023-11-21T12:02:41.419Z,31.02
2023-11-21T12:07:46.947Z,30.94
2023-11-21T12:12:49.273Z,30.88
2023-11-21T12:17:50.751Z,30.58
2023-11-21T12:22:53.004Z,30.85
2023-11-21T12:27:54.319Z,31.13
2023-11-21T12:32:56.762Z,30.80
2023-11-21T12:38:00.953Z,30.84
2023-11-21T12:43:03.261Z,30.78
2023-11-21T12:48:08.762Z,30.85
2023-11-21T12:53:11.320Z,30.99
2023-11-21T12:58:14.286Z,31.02
2023-11-21T13:03:24.798Z,30.87
2023-11-21T13:08:26.367Z,31.04
2023-11-21T13:13:30.924Z,30.98
2023-11-21T13:18:32.337Z,31.01
2023-11-21T13:23:35.516Z,30.96
2023-11-21T13:28:38.261Z,30.97
2023-11-21T13:33:41.820Z,30.86
2023-11-21T13:38:44.144Z,30.94
2023-11-21T13:43:54.815Z,30.65
2023-11-21T13:48:57.533Z,30.62
2023-11-21T13:54:00.102Z,30.36
2023-11-21T13:59:10.390Z,30.14
2023-11-21T14:04:17.744Z,30.02
2023-11-21T14:09:36.829Z,30.07
2023-11-21T14:14:38.281Z,30.01
2023-11-21T14:19:44.113Z,29.81
2023-11-21T14:24:47.900Z,29.61
2023-11-21T14:29:49.755Z,29.49
2023-11-21T14:34:51.132Z,29.32
2023-11-21T14:39:52.461Z,29.31
2023-11-21T14:44:55.344Z,29.20
2023-11-21T14:50:00.378Z,28.91
2023-11-21T14:55:24.894Z,28.88
2023-11-21T15:00:52.403Z,28.74
2023-11-21T15:05:54.696Z,28.61
2023-11-21T15:10:56.540Z,28.40
2023-11-21T15:16:01.823Z,28.03
2023-11-21T15:21:04.765Z,28.23
2023-11-21T15:26:06.386Z,28.27
2023-11-21T15:31:09.267Z,28.19
2023-11-21T15:36:10.988Z,28.46
2023-11-21T15:41:12.466Z,28.34
2023-11-21T15:46:13.840Z,28.28
2023-11-21T15:51:15.171Z,28.32
2023-11-21T15:56:16.570Z,28.35
2023-11-21T16:01:17.908Z,28.36
2023-11-21T16:06:19.234Z,28.60
2023-11-21T16:11:20.602Z,28.61
2023-11-21T16:16:23.020Z,28.69
2023-11-21T16:21:24.362Z,28.93
2023-11-21T16:26:25.657Z,29.02
2023-11-21T16:31:26.978Z,28.98
2023-11-21T16:36:28.303Z,29.09
2023-11-21T16:41:29.588Z,29.05
2023-11-21T16:46:31.120Z,28.96
2023-11-21T16:51:33.613Z,28.90
2023-11-21T16:56:35.136Z,28.82
2023-11-21T17:01:36.868Z,28.66
2023-11-21T17:06:43.307Z,28.18
2023-11-21T17:11:49.283Z,27.88
2023-11-21T17:16:51.129Z,28.30
2023-11-21T17:21:52.492Z,27.80
2023-11-21T17:26:53.882Z,27.62
2023-11-21T17:31:55.404Z,27.18
2023-11-21T17:36:56.911Z,27.25
2023-11-21T17:41:58.472Z,27.26
2023-11-21T17:46:59.992Z,27.24
2023-11-21T17:52:01.399Z,27.42
2023-11-21T17:57:02.808Z,27.18
2023-11-21T18:02:04.402Z,27.22
2023-11-21T18:07:05.784Z,27.43
2023-11-21T18:12:08.158Z,27.61
2023-11-21T18:17:09.658Z,27.38
2023-11-21T18:22:11.073Z,27.30
2023-11-21T18:27:12.493Z,27.23
2023-11-21T18:32:13.895Z,27.08
2023-11-21T18:37:15.272Z,27.17
2023-11-21T18:42:16.705Z,27.04
2023-11-21T18:47:21.325Z,27.02
2023-11-21T18:52:24.155Z,26.68
2023-11-21T18:57:27.669Z,26.95
2023-11-21T19:02:29.230Z,26.94
2023-11-21T19:07:34.918Z,26.87
2023-11-21T19:12:38.875Z,26.63
2023-11-21T19:17:40.410Z,26.57
2023-11-21T19:22:42.146Z,26.37
2023-11-21T19:27:43.480Z,26.11
2023-11-21T19:32:46.025Z,25.92
2023-11-21T19:37:48.479Z,26.10
2023-11-21T19:42:49.860Z,25.87
2023-11-21T19:47:51.473Z,25.74
2023-11-21T19:52:52.930Z,25.59
2023-11-21T19:57:54.243Z,25.76
2023-11-21T20:02:55.838Z,25.65
2023-11-21T20:07:57.207Z,25.69
2023-11-21T20:13:02.650Z,25.81
2023-11-21T20:18:08.634Z,25.86
2023-11-21T20:23:09.930Z,25.83
2023-11-21T20:28:11.255Z,25.79
2023-11-21T20:33:12.605Z,26.08
2023-11-21T20:38:14.692Z,25.77
2023-11-21T20:43:16.032Z,25.76
2023-11-21T20:48:17.549Z,26.10
2023-11-21T20:53:19.419Z,25.99
2023-11-21T20:58:20.916Z,25.93
2023-11-21T21:03:22.330Z,25.86
2023-11-21T21:08:26.923Z,26.03
2023-11-21T21:13:28.408Z,25.92
2023-11-21T21:18:29.721Z,25.85
2023-11-21T21:23:31.000Z,25.75
2023-11-21T21:28:32.349Z,25.81
2023-11-21T21:33:33.630Z,25.72
2023-11-21T21:38:35.020Z,25.41
2023-11-21T21:43:36.353Z,25.44
2023-11-21T21:48:37.673Z,24.97
2023-11-21T21:53:39.128Z,25.20
2023-11-21T21:58:41.899Z,25.12
2023-11-21T22:03:43.498Z,25.23
2023-11-21T22:08:44.895Z,25.01
2023-11-21T22:13:46.252Z,25.04
2023-11-21T22:18:47.664Z,24.94
2023-11-21T22:23:48.997Z,24.93
2023-11-21T22:28:51.862Z,25.02
2023-11-21T22:33:53.193Z,25.01
2023-11-21T22:38:54.504Z,25.07
2023-11-21T22:43:55.871Z,25.32
2023-11-21T22:48:57.481Z,25.22
2023-11-21T22:53:58.809Z,25.51
2023-11-21T22:59:00.157Z,25.08
2023-11-21T23:04:01.658Z,25.38
2023-11-21T23:09:03.060Z,25.15
2023-11-21T23:14:04.843Z,25.10
2023-11-21T23:19:06.530Z,25.02
2023-11-21T23:24:10.942Z,25.02
2023-11-21T23:29:12.553Z,25.28
2023-11-21T23:34:13.960Z,25.04
2023-11-21T23:39:15.344Z,24.97
2023-11-21T23:44:17.528Z,25.07
2023-11-21T23:49:19.536Z,24.84
2023-11-21T23:54:21.857Z,24.75
2023-11-21T23:59:23.193Z,24.83
